sensor_id;sensor_type;location;lat;lon;timestamp;pressure;altitude;pressure_sealevel;temperature;humidity
16664;BME280;8445;51.270;9.434;2023-06-04T00:01:21;99888.44;;;18.08;27.33
16664;BME280;8445;51.270;9.434;2023-06-04T00:03:47;99893.78;;;18.08;27.99
16664;BME280;8445;51.270;9.434;2023-06-04T00:06:12;99889.13;;;18.10;27.63
16664;BME280;8445;51.270;9.434;2023-06-04T00:08:38;99886.38;;;18.02;27.65
16664;BME280;8445;51.270;9.434;2023-06-04T00:11:03;99886.16;;;17.85;28.48
16664;BME280;8445;51.270;9.434;2023-06-04T00:13:28;99889.22;;;18.18;28.10
16664;BME280;8445;51.270;9.434;2023-06-04T00:15:54;99887.34;;;18.19;27.69
16664;BME280;8445;51.270;9.434;2023-06-04T00:18:20;99883.53;;;18.21;27.75
16664;BME280;8445;51.270;9.434;2023-06-04T00:20:45;99888.53;;;18.16;27.89
16664;BME280;8445;51.270;9.434;2023-06-04T00:23:11;99885.38;;;18.21;27.80
16664;BME280;8445;51.270;9.434;2023-06-04T00:25:36;99874.44;;;18.14;27.52
16664;BME280;8445;51.270;9.434;2023-06-04T00:28:01;99872.06;;;18.11;27.28
16664;BME280;8445;51.270;9.434;2023-06-04T00:30:27;99877.56;;;18.10;27.52
16664;BME280;8445;51.270;9.434;2023-06-04T00:32:52;99866.94;;;18.00;28.40
16664;BME280;8445;51.270;9.434;2023-06-04T00:35:18;99879.13;;;17.84;28.00
16664;BME280;8445;51.270;9.434;2023-06-04T00:37:43;99874.16;;;17.71;27.87
16664;BME280;8445;51.270;9.434;2023-06-04T00:40:09;99873.94;;;17.65;28.11
16664;BME280;8445;51.270;9.434;2023-06-04T00:42:35;99866.81;;;17.55;28.07
16664;BME280;8445;51.270;9.434;2023-06-04T00:45:00;99873.06;;;17.46;28.23
16664;BME280;8445;51.270;9.434;2023-06-04T00:47:26;99880.28;;;17.36;28.78
16664;BME280;8445;51.270;9.434;2023-06-04T00:49:54;99880.97;;;17.38;29.22
16664;BME280;8445;51.270;9.434;2023-06-04T00:52:21;99875.09;;;17.34;28.12
16664;BME280;8445;51.270;9.434;2023-06-04T00:54:46;99874.69;;;17.29;29.14
16664;BME280;8445;51.270;9.434;2023-06-04T00:57:12;99876.69;;;17.17;29.30
16664;BME280;8445;51.270;9.434;2023-06-04T00:59:39;99875.59;;;17.10;29.56
16664;BME280;8445;51.270;9.434;2023-06-04T01:02:12;99873.19;;;17.16;32.22
16664;BME280;8445;51.270;9.434;2023-06-04T01:04:46;99864.19;;;17.17;32.03
16664;BME280;8445;51.270;9.434;2023-06-04T01:07:15;99870.22;;;17.19;29.97
16664;BME280;8445;51.270;9.434;2023-06-04T01:09:43;99874.03;;;17.17;30.17
16664;BME280;8445;51.270;9.434;2023-06-04T01:12:09;99873.50;;;17.13;29.97
16664;BME280;8445;51.270;9.434;2023-06-04T01:14:35;99879.19;;;17.00;30.82
16664;BME280;8445;51.270;9.434;2023-06-04T01:17:09;99881.00;;;16.90;35.02
16664;BME280;8445;51.270;9.434;2023-06-04T01:25:29;99882.16;;;16.78;36.46
16664;BME280;8445;51.270;9.434;2023-06-04T01:27:57;99878.13;;;16.64;30.72
16664;BME280;8445;51.270;9.434;2023-06-04T01:30:26;99871.22;;;16.61;31.12
16664;BME280;8445;51.270;9.434;2023-06-04T01:32:55;99880.91;;;16.62;32.23
16664;BME280;8445;51.270;9.434;2023-06-04T01:35:21;99877.25;;;16.63;30.48
16664;BME280;8445;51.270;9.434;2023-06-04T01:37:48;99879.09;;;16.63;30.45
16664;BME280;8445;51.270;9.434;2023-06-04T01:40:14;99885.84;;;16.57;30.42
16664;BME280;8445;51.270;9.434;2023-06-04T01:42:41;99882.19;;;16.58;30.79
16664;BME280;8445;51.270;9.434;2023-06-04T01:45:07;99882.06;;;16.59;31.10
16664;BME280;8445;51.270;9.434;2023-06-04T01:47:32;99881.50;;;16.56;30.87
16664;BME280;8445;51.270;9.434;2023-06-04T01:49:59;99878.00;;;16.45;30.72
16664;BME280;8445;51.270;9.434;2023-06-04T01:52:24;99878.13;;;16.64;31.48
16664;BME280;8445;51.270;9.434;2023-06-04T01:54:50;99878.53;;;16.59;31.46
16664;BME280;8445;51.270;9.434;2023-06-04T01:57:27;99881.34;;;16.57;36.56
16664;BME280;8445;51.270;9.434;2023-06-04T01:59:52;99881.66;;;16.54;31.33
16664;BME280;8445;51.270;9.434;2023-06-04T02:02:18;99882.75;;;16.52;31.80
16664;BME280;8445;51.270;9.434;2023-06-04T02:04:44;99878.72;;;16.48;31.70
16664;BME280;8445;51.270;9.434;2023-06-04T02:07:11;99879.00;;;16.44;32.50
16664;BME280;8445;51.270;9.434;2023-06-04T02:09:39;99885.03;;;16.47;32.64
16664;BME280;8445;51.270;9.434;2023-06-04T02:12:05;99881.13;;;16.31;33.78
16664;BME280;8445;51.270;9.434;2023-06-04T02:14:31;99879.13;;;16.23;32.33
16664;BME280;8445;51.270;9.434;2023-06-04T02:16:56;99882.78;;;16.22;32.14
16664;BME280;8445;51.270;9.434;2023-06-04T02:19:26;99876.63;;;16.12;35.03
16664;BME280;8445;51.270;9.434;2023-06-04T02:21:53;99881.66;;;16.05;32.57
16664;BME280;8445;51.270;9.434;2023-06-04T02:24:19;99876.88;;;15.89;33.77
16664;BME280;8445;51.270;9.434;2023-06-04T02:26:44;99871.81;;;15.96;32.60
16664;BME280;8445;51.270;9.434;2023-06-04T02:29:10;99875.75;;;15.92;32.23
16664;BME280;8445;51.270;9.434;2023-06-04T02:31:35;99880.41;;;15.90;33.04
16664;BME280;8445;51.270;9.434;2023-06-04T02:34:01;99877.03;;;15.88;32.69
16664;BME280;8445;51.270;9.434;2023-06-04T02:36:26;99870.97;;;15.85;32.02
16664;BME280;8445;51.270;9.434;2023-06-04T02:38:52;99871.38;;;15.81;33.49
16664;BME280;8445;51.270;9.434;2023-06-04T02:41:17;99880.72;;;15.55;32.95
16664;BME280;8445;51.270;9.434;2023-06-04T02:43:43;99877.09;;;15.56;32.92
16664;BME280;8445;51.270;9.434;2023-06-04T02:46:09;99875.94;;;15.49;34.13
16664;BME280;8445;51.270;9.434;2023-06-04T02:48:34;99873.44;;;15.48;33.81
16664;BME280;8445;51.270;9.434;2023-06-04T02:50:59;99879.56;;;15.38;34.03
16664;BME280;8445;51.270;9.434;2023-06-04T02:53:26;99883.75;;;15.31;33.37
16664;BME280;8445;51.270;9.434;2023-06-04T02:55:51;99885.97;;;15.26;32.38
16664;BME280;8445;51.270;9.434;2023-06-04T02:58:18;99884.00;;;15.18;33.00
16664;BME280;8445;51.270;9.434;2023-06-04T03:00:44;99889.41;;;15.07;34.88
16664;BME280;8445;51.270;9.434;2023-06-04T03:03:10;99891.44;;;14.93;33.26
16664;BME280;8445;51.270;9.434;2023-06-04T03:05:36;99888.06;;;14.91;34.50
16664;BME280;8445;51.270;9.434;2023-06-04T03:08:02;99896.72;;;14.84;34.21
16664;BME280;8445;51.270;9.434;2023-06-04T03:10:29;99891.44;;;14.93;34.58
16664;BME280;8445;51.270;9.434;2023-06-04T03:12:55;99893.38;;;14.91;34.00
16664;BME280;8445;51.270;9.434;2023-06-04T03:15:20;99886.38;;;14.90;33.91
16664;BME280;8445;51.270;9.434;2023-06-04T03:17:46;99892.16;;;14.95;34.99
16664;BME280;8445;51.270;9.434;2023-06-04T03:20:12;99888.78;;;14.93;33.79
16664;BME280;8445;51.270;9.434;2023-06-04T03:22:38;99890.66;;;15.03;33.70
16664;BME280;8445;51.270;9.434;2023-06-04T03:25:04;99901.59;;;15.09;33.70
16664;BME280;8445;51.270;9.434;2023-06-04T03:27:31;99891.13;;;15.18;34.43
16664;BME280;8445;51.270;9.434;2023-06-04T03:29:57;99898.03;;;15.20;34.03
16664;BME280;8445;51.270;9.434;2023-06-04T03:32:23;99905.56;;;15.15;34.58
16664;BME280;8445;51.270;9.434;2023-06-04T03:34:49;99912.84;;;15.13;34.08
16664;BME280;8445;51.270;9.434;2023-06-04T03:37:17;99909.22;;;15.14;35.73
16664;BME280;8445;51.270;9.434;2023-06-04T03:39:43;99914.53;;;15.14;34.06
16664;BME280;8445;51.270;9.434;2023-06-04T03:42:11;99913.50;;;15.26;33.29
16664;BME280;8445;51.270;9.434;2023-06-04T03:44:37;99912.66;;;15.36;34.01
16664;BME280;8445;51.270;9.434;2023-06-04T03:47:03;99903.13;;;15.43;33.43
16664;BME280;8445;51.270;9.434;2023-06-04T03:49:29;99905.00;;;15.52;34.08
16664;BME280;8445;51.270;9.434;2023-06-04T03:51:55;99908.81;;;15.60;34.40
16664;BME280;8445;51.270;9.434;2023-06-04T03:54:21;99909.78;;;15.59;33.30
16664;BME280;8445;51.270;9.434;2023-06-04T03:56:48;99921.88;;;15.63;34.61
16664;BME280;8445;51.270;9.434;2023-06-04T03:59:14;99910.94;;;15.66;34.14
16664;BME280;8445;51.270;9.434;2023-06-04T04:01:40;99921.06;;;15.72;33.84
16664;BME280;8445;51.270;9.434;2023-06-04T04:04:05;99911.38;;;15.71;33.59
16664;BME280;8445;51.270;9.434;2023-06-04T04:06:31;99909.06;;;16.07;33.00
16664;BME280;8445;51.270;9.434;2023-06-04T04:08:57;99913.44;;;16.28;34.15
16664;BME280;8445;51.270;9.434;2023-06-04T04:11:23;99920.59;;;16.37;34.31
16664;BME280;8445;51.270;9.434;2023-06-04T04:13:49;99914.97;;;16.40;33.05
16664;BME280;8445;51.270;9.434;2023-06-04T04:16:16;99917.63;;;16.50;33.42
16664;BME280;8445;51.270;9.434;2023-06-04T04:18:42;99911.72;;;16.56;33.72
16664;BME280;8445;51.270;9.434;2023-06-04T04:21:09;99907.63;;;16.62;32.70
16664;BME280;8445;51.270;9.434;2023-06-04T04:23:37;99904.41;;;16.49;33.68
16664;BME280;8445;51.270;9.434;2023-06-04T04:26:03;99904.38;;;16.68;33.48
16664;BME280;8445;51.270;9.434;2023-06-04T04:28:29;99908.91;;;16.58;36.26
16664;BME280;8445;51.270;9.434;2023-06-04T04:30:56;99902.69;;;16.67;33.02
16664;BME280;8445;51.270;9.434;2023-06-04T04:33:25;99905.66;;;16.74;34.42
16664;BME280;8445;51.270;9.434;2023-06-04T04:35:51;99905.38;;;16.67;37.00
16664;BME280;8445;51.270;9.434;2023-06-04T04:38:21;99910.53;;;16.88;33.28
16664;BME280;8445;51.270;9.434;2023-06-04T04:40:55;99907.75;;;16.70;34.23
16664;BME280;8445;51.270;9.434;2023-06-04T04:43:32;99902.09;;;16.93;35.48
16664;BME280;8445;51.270;9.434;2023-06-04T04:46:02;99913.88;;;17.10;33.21
16664;BME280;8445;51.270;9.434;2023-06-04T04:48:27;99903.72;;;17.14;34.08
16664;BME280;8445;51.270;9.434;2023-06-04T04:50:53;99910.47;;;17.18;33.65
16664;BME280;8445;51.270;9.434;2023-06-04T04:53:19;99910.44;;;17.28;33.27
16664;BME280;8445;51.270;9.434;2023-06-04T04:55:45;99914.81;;;17.29;33.99
16664;BME280;8445;51.270;9.434;2023-06-04T04:58:10;99909.88;;;17.24;32.95
16664;BME280;8445;51.270;9.434;2023-06-04T05:00:36;99905.72;;;17.40;33.65
16664;BME280;8445;51.270;9.434;2023-06-04T05:03:02;99920.69;;;17.60;33.49
16664;BME280;8445;51.270;9.434;2023-06-04T05:05:27;99917.41;;;17.39;33.93
16664;BME280;8445;51.270;9.434;2023-06-04T05:07:53;99910.59;;;17.54;33.23
16664;BME280;8445;51.270;9.434;2023-06-04T05:10:22;99917.69;;;17.91;33.18
16664;BME280;8445;51.270;9.434;2023-06-04T05:12:55;99921.63;;;18.15;38.30
16664;BME280;8445;51.270;9.434;2023-06-04T05:15:25;99923.75;;;18.12;33.29
16664;BME280;8445;51.270;9.434;2023-06-04T05:17:53;99922.06;;;18.29;32.91
16664;BME280;8445;51.270;9.434;2023-06-04T05:20:20;99925.91;;;18.08;33.70
16664;BME280;8445;51.270;9.434;2023-06-04T05:22:47;99928.28;;;18.11;34.48
16664;BME280;8445;51.270;9.434;2023-06-04T05:25:14;99932.13;;;18.45;33.49
16664;BME280;8445;51.270;9.434;2023-06-04T05:27:40;99930.72;;;18.59;33.60
16664;BME280;8445;51.270;9.434;2023-06-04T05:30:08;99931.22;;;18.62;33.57
16664;BME280;8445;51.270;9.434;2023-06-04T05:32:34;99920.22;;;18.92;32.87
16664;BME280;8445;51.270;9.434;2023-06-04T05:35:02;99929.66;;;18.96;33.28
16664;BME280;8445;51.270;9.434;2023-06-04T05:37:32;99926.56;;;19.09;32.92
16664;BME280;8445;51.270;9.434;2023-06-04T05:40:00;99929.38;;;19.34;33.32
16664;BME280;8445;51.270;9.434;2023-06-04T05:42:25;99927.09;;;19.47;32.89
16664;BME280;8445;51.270;9.434;2023-06-04T05:44:51;99925.50;;;19.28;33.69
16664;BME280;8445;51.270;9.434;2023-06-04T05:47:20;99923.28;;;19.66;32.89
16664;BME280;8445;51.270;9.434;2023-06-04T05:49:46;99937.44;;;19.85;32.26
16664;BME280;8445;51.270;9.434;2023-06-04T05:52:12;99930.13;;;20.04;32.45
16664;BME280;8445;51.270;9.434;2023-06-04T05:54:40;99937.69;;;20.08;32.38
16664;BME280;8445;51.270;9.434;2023-06-04T05:57:06;99935.00;;;20.00;33.44
16664;BME280;8445;51.270;9.434;2023-06-04T05:59:32;99937.31;;;19.95;33.85
16664;BME280;8445;51.270;9.434;2023-06-04T06:01:58;99938.22;;;20.28;32.54
16664;BME280;8445;51.270;9.434;2023-06-04T06:04:24;99935.31;;;19.97;33.26
16664;BME280;8445;51.270;9.434;2023-06-04T06:06:52;99941.59;;;20.31;32.89
16664;BME280;8445;51.270;9.434;2023-06-04T06:09:19;99944.59;;;20.69;32.22
16664;BME280;8445;51.270;9.434;2023-06-04T06:11:45;99941.94;;;20.94;31.97
16664;BME280;8445;51.270;9.434;2023-06-04T06:14:11;99943.25;;;20.65;33.23
16664;BME280;8445;51.270;9.434;2023-06-04T06:16:36;99942.16;;;21.32;32.06
16664;BME280;8445;51.270;9.434;2023-06-04T06:19:02;99952.00;;;21.00;33.13
16664;BME280;8445;51.270;9.434;2023-06-04T06:21:27;99945.59;;;20.26;32.93
16664;BME280;8445;51.270;9.434;2023-06-04T06:23:53;99952.34;;;20.55;32.91
16664;BME280;8445;51.270;9.434;2023-06-04T06:26:19;99958.22;;;20.59;32.91
16664;BME280;8445;51.270;9.434;2023-06-04T06:28:48;99951.59;;;21.28;32.03
16664;BME280;8445;51.270;9.434;2023-06-04T06:31:15;99952.22;;;21.38;31.43
16664;BME280;8445;51.270;9.434;2023-06-04T06:33:40;99957.03;;;22.54;30.39
16664;BME280;8445;51.270;9.434;2023-06-04T06:36:15;99959.69;;;22.31;30.66
16664;BME280;8445;51.270;9.434;2023-06-04T06:38:44;99960.34;;;21.78;31.54
16664;BME280;8445;51.270;9.434;2023-06-04T06:41:12;99970.59;;;21.83;31.66
16664;BME280;8445;51.270;9.434;2023-06-04T06:43:38;99961.75;;;21.66;31.47
16664;BME280;8445;51.270;9.434;2023-06-04T06:46:03;99972.09;;;21.85;31.76
16664;BME280;8445;51.270;9.434;2023-06-04T06:48:31;99976.44;;;21.38;31.15
16664;BME280;8445;51.270;9.434;2023-06-04T06:50:56;99968.25;;;22.81;30.67
16664;BME280;8445;51.270;9.434;2023-06-04T06:53:22;99966.97;;;22.30;31.07
16664;BME280;8445;51.270;9.434;2023-06-04T06:55:47;99979.19;;;22.10;31.29
16664;BME280;8445;51.270;9.434;2023-06-04T06:58:13;99979.44;;;22.55;30.66
16664;BME280;8445;51.270;9.434;2023-06-04T07:00:38;99987.22;;;22.73;30.21
16664;BME280;8445;51.270;9.434;2023-06-04T07:03:04;99980.88;;;22.11;30.96
16664;BME280;8445;51.270;9.434;2023-06-04T07:05:30;99976.81;;;22.15;31.00
16664;BME280;8445;51.270;9.434;2023-06-04T07:07:55;99974.44;;;22.20;30.37
16664;BME280;8445;51.270;9.434;2023-06-04T07:10:22;99973.53;;;22.28;30.62
16664;BME280;8445;51.270;9.434;2023-06-04T07:12:48;99983.63;;;22.02;30.65
16664;BME280;8445;51.270;9.434;2023-06-04T07:15:13;99980.81;;;23.27;29.70
16664;BME280;8445;51.270;9.434;2023-06-04T07:17:39;99976.41;;;23.11;29.73
16664;BME280;8445;51.270;9.434;2023-06-04T07:20:05;99973.81;;;23.78;29.50
16664;BME280;8445;51.270;9.434;2023-06-04T07:22:32;99976.16;;;23.21;30.03
16664;BME280;8445;51.270;9.434;2023-06-04T07:24:58;99977.03;;;23.51;30.04
16664;BME280;8445;51.270;9.434;2023-06-04T07:27:23;99979.13;;;24.01;29.49
16664;BME280;8445;51.270;9.434;2023-06-04T07:29:48;99969.97;;;24.24;29.24
16664;BME280;8445;51.270;9.434;2023-06-04T07:32:14;99973.28;;;23.52;29.72
16664;BME280;8445;51.270;9.434;2023-06-04T07:34:39;99967.47;;;23.86;29.82
16664;BME280;8445;51.270;9.434;2023-06-04T07:37:05;99979.13;;;24.66;29.40
16664;BME280;8445;51.270;9.434;2023-06-04T07:39:31;99974.44;;;24.75;28.92
16664;BME280;8445;51.270;9.434;2023-06-04T07:41:56;99980.13;;;23.85;29.15
16664;BME280;8445;51.270;9.434;2023-06-04T07:44:22;99977.72;;;24.27;29.33
16664;BME280;8445;51.270;9.434;2023-06-04T07:46:47;99982.63;;;24.60;29.40
16664;BME280;8445;51.270;9.434;2023-06-04T07:49:13;99979.50;;;24.20;29.01
16664;BME280;8445;51.270;9.434;2023-06-04T07:51:39;99980.50;;;25.41;28.25
16664;BME280;8445;51.270;9.434;2023-06-04T07:54:04;99982.78;;;24.58;28.77
16664;BME280;8445;51.270;9.434;2023-06-04T07:56:30;99986.09;;;24.32;29.41
16664;BME280;8445;51.270;9.434;2023-06-04T07:58:56;99981.97;;;24.58;28.14
16664;BME280;8445;51.270;9.434;2023-06-04T08:01:21;99981.16;;;25.08;28.28
16664;BME280;8445;51.270;9.434;2023-06-04T08:03:49;99977.03;;;25.12;28.98
16664;BME280;8445;51.270;9.434;2023-06-04T08:06:15;99977.13;;;25.25;27.64
16664;BME280;8445;51.270;9.434;2023-06-04T08:08:44;99976.00;;;25.48;28.21
16664;BME280;8445;51.270;9.434;2023-06-04T08:11:15;99983.31;;;25.19;28.71
16664;BME280;8445;51.270;9.434;2023-06-04T08:13:41;99974.81;;;25.57;28.37
16664;BME280;8445;51.270;9.434;2023-06-04T08:16:07;99973.66;;;25.80;27.59
16664;BME280;8445;51.270;9.434;2023-06-04T08:18:37;99970.81;;;25.53;27.62
16664;BME280;8445;51.270;9.434;2023-06-04T08:21:03;99975.75;;;25.78;27.25
16664;BME280;8445;51.270;9.434;2023-06-04T08:23:31;99976.13;;;26.44;27.13
16664;BME280;8445;51.270;9.434;2023-06-04T08:25:57;99966.53;;;25.72;27.33
16664;BME280;8445;51.270;9.434;2023-06-04T08:28:24;99978.28;;;26.00;27.75
16664;BME280;8445;51.270;9.434;2023-06-04T08:30:51;99980.97;;;26.48;26.78
16664;BME280;8445;51.270;9.434;2023-06-04T08:33:17;99983.31;;;25.54;26.88
16664;BME280;8445;51.270;9.434;2023-06-04T08:35:42;99974.28;;;26.78;26.56
16664;BME280;8445;51.270;9.434;2023-06-04T08:38:08;99983.22;;;27.32;26.63
16664;BME280;8445;51.270;9.434;2023-06-04T08:40:33;99986.00;;;27.05;26.95
16664;BME280;8445;51.270;9.434;2023-06-04T08:43:00;99985.97;;;26.72;25.70
16664;BME280;8445;51.270;9.434;2023-06-04T08:45:26;99984.72;;;26.68;25.45
16664;BME280;8445;51.270;9.434;2023-06-04T08:47:52;99985.53;;;27.22;24.83
16664;BME280;8445;51.270;9.434;2023-06-04T08:50:23;99983.44;;;27.24;26.65
16664;BME280;8445;51.270;9.434;2023-06-04T08:52:52;99992.16;;;26.25;26.60
16664;BME280;8445;51.270;9.434;2023-06-04T08:55:27;99982.88;;;26.95;26.77
16664;BME280;8445;51.270;9.434;2023-06-04T08:57:53;99981.81;;;26.89;26.85
16664;BME280;8445;51.270;9.434;2023-06-04T09:00:19;99981.31;;;28.12;25.38
16664;BME280;8445;51.270;9.434;2023-06-04T09:02:47;99975.72;;;27.93;26.02
16664;BME280;8445;51.270;9.434;2023-06-04T09:05:19;99972.00;;;27.88;24.38
16664;BME280;8445;51.270;9.434;2023-06-04T09:07:46;99975.66;;;28.07;24.63
16664;BME280;8445;51.270;9.434;2023-06-04T09:10:13;99978.38;;;28.00;25.61
16664;BME280;8445;51.270;9.434;2023-06-04T09:12:46;99972.28;;;28.18;23.96
16664;BME280;8445;51.270;9.434;2023-06-04T09:15:12;99974.84;;;28.96;25.67
16664;BME280;8445;51.270;9.434;2023-06-04T09:17:38;99981.53;;;29.19;25.19
16664;BME280;8445;51.270;9.434;2023-06-04T09:20:03;99981.78;;;28.92;25.03
16664;BME280;8445;51.270;9.434;2023-06-04T09:22:34;99981.56;;;28.36;22.79
16664;BME280;8445;51.270;9.434;2023-06-04T09:25:03;99982.44;;;29.12;24.79
16664;BME280;8445;51.270;9.434;2023-06-04T09:27:37;99984.53;;;29.10;22.85
16664;BME280;8445;51.270;9.434;2023-06-04T09:30:03;99980.94;;;28.34;25.19
16664;BME280;8445;51.270;9.434;2023-06-04T09:32:30;99983.56;;;28.47;25.28
16664;BME280;8445;51.270;9.434;2023-06-04T09:35:07;99976.25;;;28.16;24.47
16664;BME280;8445;51.270;9.434;2023-06-04T09:37:34;99980.91;;;27.56;24.80
16664;BME280;8445;51.270;9.434;2023-06-04T09:40:00;99975.66;;;28.07;24.94
16664;BME280;8445;51.270;9.434;2023-06-04T09:42:26;99978.47;;;28.58;24.70
16664;BME280;8445;51.270;9.434;2023-06-04T09:44:51;99978.34;;;28.78;23.36
16664;BME280;8445;51.270;9.434;2023-06-04T09:47:17;99968.31;;;28.46;25.38
16664;BME280;8445;51.270;9.434;2023-06-04T09:49:44;99973.97;;;29.21;24.20
16664;BME280;8445;51.270;9.434;2023-06-04T09:52:10;99964.53;;;28.47;24.88
16664;BME280;8445;51.270;9.434;2023-06-04T09:54:37;99972.44;;;26.92;24.44
16664;BME280;8445;51.270;9.434;2023-06-04T09:57:05;99976.25;;;28.16;24.88
16664;BME280;8445;51.270;9.434;2023-06-04T09:59:39;99968.91;;;28.80;25.03
16664;BME280;8445;51.270;9.434;2023-06-04T10:02:06;99966.72;;;29.33;23.30
16664;BME280;8445;51.270;9.434;2023-06-04T10:04:35;99966.13;;;27.84;23.93
16664;BME280;8445;51.270;9.434;2023-06-04T10:07:04;99970.47;;;27.40;23.11
16664;BME280;8445;51.270;9.434;2023-06-04T10:09:32;99969.81;;;28.42;23.99
16664;BME280;8445;51.270;9.434;2023-06-04T10:11:59;99964.59;;;28.66;23.73
16664;BME280;8445;51.270;9.434;2023-06-04T10:14:41;99966.13;;;29.50;23.64
16664;BME280;8445;51.270;9.434;2023-06-04T10:17:07;99961.81;;;28.79;22.20
16664;BME280;8445;51.270;9.434;2023-06-04T10:19:35;99967.94;;;28.43;23.48
16664;BME280;8445;51.270;9.434;2023-06-04T10:22:04;99972.34;;;28.37;23.94
16664;BME280;8445;51.270;9.434;2023-06-04T10:24:30;99973.13;;;28.05;23.81
16664;BME280;8445;51.270;9.434;2023-06-04T10:26:58;99961.81;;;28.08;23.43
16664;BME280;8445;51.270;9.434;2023-06-04T10:29:25;99952.28;;;27.92;24.44
16664;BME280;8445;51.270;9.434;2023-06-04T10:31:54;99959.72;;;28.10;24.57
16664;BME280;8445;51.270;9.434;2023-06-04T10:34:20;99965.75;;;28.83;24.30
16664;BME280;8445;51.270;9.434;2023-06-04T10:36:46;99961.19;;;27.67;23.72
16664;BME280;8445;51.270;9.434;2023-06-04T10:39:11;99973.41;;;27.31;24.20
16664;BME280;8445;51.270;9.434;2023-06-04T10:41:37;99957.72;;;27.92;24.91
16664;BME280;8445;51.270;9.434;2023-06-04T10:44:03;99958.72;;;28.05;23.91
16664;BME280;8445;51.270;9.434;2023-06-04T10:46:39;99966.69;;;27.41;23.51
16664;BME280;8445;51.270;9.434;2023-06-04T10:49:09;99953.91;;;28.64;23.00
16664;BME280;8445;51.270;9.434;2023-06-04T10:51:36;99952.03;;;28.39;24.50
16664;BME280;8445;51.270;9.434;2023-06-04T10:54:04;99961.34;;;28.25;24.39
16664;BME280;8445;51.270;9.434;2023-06-04T10:56:32;99961.94;;;29.10;23.80
16664;BME280;8445;51.270;9.434;2023-06-04T10:58:59;99955.47;;;29.67;23.49
16664;BME280;8445;51.270;9.434;2023-06-04T11:01:30;99955.50;;;29.23;23.01
16664;BME280;8445;51.270;9.434;2023-06-04T11:03:57;99964.22;;;28.88;24.45
16664;BME280;8445;51.270;9.434;2023-06-04T11:06:23;99967.13;;;30.05;23.78
16664;BME280;8445;51.270;9.434;2023-06-04T11:09:04;99956.16;;;30.66;22.45
16664;BME280;8445;51.270;9.434;2023-06-04T11:11:30;99957.03;;;30.90;22.94
16664;BME280;8445;51.270;9.434;2023-06-04T11:14:07;99953.56;;;29.49;21.83
16664;BME280;8445;51.270;9.434;2023-06-04T11:16:33;99957.00;;;29.00;23.44
16664;BME280;8445;51.270;9.434;2023-06-04T11:18:58;99956.66;;;28.90;24.09
16664;BME280;8445;51.270;9.434;2023-06-04T11:21:27;99943.41;;;28.17;24.62
16664;BME280;8445;51.270;9.434;2023-06-04T11:23:59;99949.09;;;28.41;23.48
16664;BME280;8445;51.270;9.434;2023-06-04T11:26:35;99932.97;;;28.14;23.55
16664;BME280;8445;51.270;9.434;2023-06-04T11:29:02;99930.00;;;28.22;24.07
16664;BME280;8445;51.270;9.434;2023-06-04T11:31:40;99926.34;;;28.61;23.28
16664;BME280;8445;51.270;9.434;2023-06-04T11:34:07;99940.63;;;28.24;23.40
16664;BME280;8445;51.270;9.434;2023-06-04T11:36:33;99930.84;;;29.36;23.51
16664;BME280;8445;51.270;9.434;2023-06-04T11:39:00;99937.97;;;28.17;23.99
16664;BME280;8445;51.270;9.434;2023-06-04T11:41:30;99946.31;;;29.42;23.08
16664;BME280;8445;51.270;9.434;2023-06-04T11:43:56;99949.28;;;29.90;23.16
16664;BME280;8445;51.270;9.434;2023-06-04T11:46:23;99935.53;;;29.97;22.10
16664;BME280;8445;51.270;9.434;2023-06-04T11:48:52;99934.78;;;30.86;22.52
16664;BME280;8445;51.270;9.434;2023-06-04T11:51:19;99928.59;;;30.55;21.80
16664;BME280;8445;51.270;9.434;2023-06-04T11:53:46;99936.28;;;29.18;23.54
16664;BME280;8445;51.270;9.434;2023-06-04T11:56:12;99931.00;;;28.53;23.17
16664;BME280;8445;51.270;9.434;2023-06-04T11:58:38;99939.09;;;29.11;23.10
16664;BME280;8445;51.270;9.434;2023-06-04T12:01:06;99941.00;;;28.60;23.37
16664;BME280;8445;51.270;9.434;2023-06-04T12:03:39;99941.00;;;28.28;22.30
16664;BME280;8445;51.270;9.434;2023-06-04T12:06:24;99939.03;;;30.04;21.35
16664;BME280;8445;51.270;9.434;2023-06-04T12:08:54;99926.97;;;31.02;21.51
16664;BME280;8445;51.270;9.434;2023-06-04T12:11:30;99935.53;;;29.48;22.28
16664;BME280;8445;51.270;9.434;2023-06-04T12:14:02;99931.03;;;29.41;23.23
16664;BME280;8445;51.270;9.434;2023-06-04T12:16:28;99926.81;;;30.07;22.65
16664;BME280;8445;51.270;9.434;2023-06-04T12:19:05;99923.03;;;31.22;20.10
16664;BME280;8445;51.270;9.434;2023-06-04T12:21:31;99917.22;;;31.59;21.12
16664;BME280;8445;51.270;9.434;2023-06-04T12:24:10;99915.44;;;31.76;20.57
16664;BME280;8445;51.270;9.434;2023-06-04T12:26:37;99913.03;;;31.97;20.82
16664;BME280;8445;51.270;9.434;2023-06-04T12:29:15;99909.63;;;31.61;20.41
16664;BME280;8445;51.270;9.434;2023-06-04T12:31:44;99924.47;;;31.24;20.66
16664;BME280;8445;51.270;9.434;2023-06-04T12:34:13;99918.50;;;29.34;21.49
16664;BME280;8445;51.270;9.434;2023-06-04T12:36:39;99919.84;;;30.65;22.27
16664;BME280;8445;51.270;9.434;2023-06-04T12:39:06;99920.22;;;30.81;20.43
16664;BME280;8445;51.270;9.434;2023-06-04T12:41:32;99920.22;;;30.81;22.13
16664;BME280;8445;51.270;9.434;2023-06-04T12:44:01;99916.28;;;30.88;21.91
16664;BME280;8445;51.270;9.434;2023-06-04T12:46:27;99912.38;;;30.72;21.72
16664;BME280;8445;51.270;9.434;2023-06-04T12:48:53;99913.16;;;30.49;20.44
16664;BME280;8445;51.270;9.434;2023-06-04T12:51:20;99915.47;;;31.53;20.96
16664;BME280;8445;51.270;9.434;2023-06-04T12:53:46;99911.00;;;32.04;20.45
16664;BME280;8445;51.270;9.434;2023-06-04T12:56:12;99907.59;;;31.03;20.46
16664;BME280;8445;51.270;9.434;2023-06-04T12:58:37;99910.44;;;30.97;21.37
16664;BME280;8445;51.270;9.434;2023-06-04T13:01:03;99902.94;;;31.28;20.66
16664;BME280;8445;51.270;9.434;2023-06-04T13:03:32;99909.50;;;30.13;19.96
16664;BME280;8445;51.270;9.434;2023-06-04T13:05:58;99914.41;;;29.62;21.74
16664;BME280;8445;51.270;9.434;2023-06-04T13:08:24;99909.97;;;29.98;21.08
16664;BME280;8445;51.270;9.434;2023-06-04T13:10:51;99905.78;;;30.26;20.31
16664;BME280;8445;51.270;9.434;2023-06-04T13:13:17;99906.28;;;31.59;21.24
16664;BME280;8445;51.270;9.434;2023-06-04T13:15:43;99897.16;;;30.65;20.72